sensor_id;sensor_type;location;lat;lon;timestamp;pressure;altitude;pressure_sealevel;temperature;humidity
39243;BME280;29823;47.404;8.566;2023-02-12T00:00:52;98316.75;;;-0.52;100.00
39243;BME280;29823;47.404;8.566;2023-02-12T00:03:20;98317.50;;;-0.60;100.00
39243;BME280;29823;47.404;8.566;2023-02-12T00:05:47;98314.50;;;-0.45;100.00
39243;BME280;29823;47.404;8.566;2023-02-12T00:08:15;98310.81;;;-0.43;100.00
39243;BME280;29823;47.404;8.566;2023-02-12T00:10:43;98295.88;;;-0.42;100.00
39243;BME280;29823;47.404;8.566;2023-02-12T00:13:11;98287.75;;;-0.50;100.00
39243;BME280;29823;47.404;8.566;2023-02-12T00:15:41;98286.44;;;-0.44;100.00
39243;BME280;29823;47.404;8.566;2023-02-12T00:18:09;98290.50;;;-0.52;100.00
39243;BME280;29823;47.404;8.566;2023-02-12T00:20:38;98295.53;;;-0.70;100.00
39243;BME280;29823;47.404;8.566;2023-02-12T00:23:06;98287.16;;;-0.75;100.00
39243;BME280;29823;47.404;8.566;2023-02-12T00:25:34;98282.38;;;-0.81;100.00
39243;BME280;29823;47.404;8.566;2023-02-12T00:28:02;98289.19;;;-0.90;100.00
39243;BME280;29823;47.404;8.566;2023-02-12T00:30:29;98288.31;;;-0.90;100.00
39243;BME280;29823;47.404;8.566;2023-02-12T00:32:59;98286.06;;;-0.95;100.00
39243;BME280;29823;47.404;8.566;2023-02-12T00:35:26;98282.34;;;-1.03;100.00
39243;BME280;29823;47.404;8.566;2023-02-12T00:37:54;98280.81;;;-1.06;100.00
39243;BME280;29823;47.404;8.566;2023-02-12T00:40:22;98272.81;;;-1.04;100.00
39243;BME280;29823;47.404;8.566;2023-02-12T00:42:52;98282.84;;;-0.98;100.00
39243;BME280;29823;47.404;8.566;2023-02-12T00:45:20;98285.47;;;-0.98;100.00
39243;BME280;29823;47.404;8.566;2023-02-12T00:47:48;98290.72;;;-0.98;100.00
39243;BME280;29823;47.404;8.566;2023-02-12T00:50:17;98277.56;;;-1.09;100.00
39243;BME280;29823;47.404;8.566;2023-02-12T00:52:45;98299.06;;;-1.04;100.00
39243;BME280;29823;47.404;8.566;2023-02-12T00:55:13;98300.94;;;-1.06;100.00
39243;BME280;29823;47.404;8.566;2023-02-12T00:57:41;98314.56;;;-1.01;100.00
39243;BME280;29823;47.404;8.566;2023-02-12T01:00:10;98317.53;;;-1.06;100.00
39243;BME280;29823;47.404;8.566;2023-02-12T01:02:38;98316.97;;;-0.98;100.00
39243;BME280;29823;47.404;8.566;2023-02-12T01:05:07;98306.47;;;-0.98;100.00
39243;BME280;29823;47.404;8.566;2023-02-12T01:07:36;98299.69;;;-0.90;100.00
39243;BME280;29823;47.404;8.566;2023-02-12T01:10:07;98291.31;;;-0.95;100.00
39243;BME280;29823;47.404;8.566;2023-02-12T01:12:35;98284.00;;;-1.13;100.00
39243;BME280;29823;47.404;8.566;2023-02-12T01:15:03;98297.13;;;-1.13;100.00
39243;BME280;29823;47.404;8.566;2023-02-12T01:17:31;98292.09;;;-1.16;100.00
39243;BME280;29823;47.404;8.566;2023-02-12T01:19:59;98287.59;;;-1.14;100.00
39243;BME280;29823;47.404;8.566;2023-02-12T01:22:26;98295.81;;;-1.08;100.00
39243;BME280;29823;47.404;8.566;2023-02-12T01:24:56;98297.84;;;-1.11;100.00
39243;BME280;29823;47.404;8.566;2023-02-12T01:27:24;98281.97;;;-1.10;100.00
39243;BME280;29823;47.404;8.566;2023-02-12T01:29:52;98282.59;;;-0.95;100.00
39243;BME280;29823;47.404;8.566;2023-02-12T01:32:19;98281.31;;;-0.90;100.00
39243;BME280;29823;47.404;8.566;2023-02-12T01:34:47;98285.69;;;-1.01;100.00
39243;BME280;29823;47.404;8.566;2023-02-12T01:37:15;98280.91;;;-1.07;100.00
39243;BME280;29823;47.404;8.566;2023-02-12T01:39:43;98288.78;;;-1.07;100.00
39243;BME280;29823;47.404;8.566;2023-02-12T01:42:14;98288.75;;;-1.18;100.00
39243;BME280;29823;47.404;8.566;2023-02-12T01:44:45;98283.13;;;-1.25;100.00
39243;BME280;29823;47.404;8.566;2023-02-12T01:47:32;98284.19;;;-1.27;100.00
39243;BME280;29823;47.404;8.566;2023-02-12T01:50:00;98233.00;;;-1.55;100.00
39243;BME280;29823;47.404;8.566;2023-02-12T01:52:31;98295.03;;;-1.32;100.00
39243;BME280;29823;47.404;8.566;2023-02-12T01:55:03;98299.13;;;-1.28;100.00
39243;BME280;29823;47.404;8.566;2023-02-12T01:57:35;98303.75;;;-1.31;100.00
39243;BME280;29823;47.404;8.566;2023-02-12T02:00:08;98283.84;;;-1.34;100.00
39243;BME280;29823;47.404;8.566;2023-02-12T02:02:37;98287.38;;;-1.35;100.00
39243;BME280;29823;47.404;8.566;2023-02-12T02:05:06;98283.72;;;-1.21;100.00
39243;BME280;29823;47.404;8.566;2023-02-12T02:07:34;98276.81;;;-1.22;100.00
39243;BME280;29823;47.404;8.566;2023-02-12T02:10:02;98282.31;;;-1.25;100.00
39243;BME280;29823;47.404;8.566;2023-02-12T02:12:30;98265.50;;;-1.23;100.00
39243;BME280;29823;47.404;8.566;2023-02-12T02:15:24;98264.06;;;-1.16;100.00
39243;BME280;29823;47.404;8.566;2023-02-12T02:17:55;98265.50;;;-1.23;100.00
39243;BME280;29823;47.404;8.566;2023-02-12T02:20:47;98268.94;;;-1.22;100.00
39243;BME280;29823;47.404;8.566;2023-02-12T02:26:49;98262.38;;;-1.28;100.00
39243;BME280;29823;47.404;8.566;2023-02-12T02:29:40;98260.47;;;-1.26;100.00
39243;BME280;29823;47.404;8.566;2023-02-12T02:32:16;98267.06;;;-1.20;100.00
39243;BME280;29823;47.404;8.566;2023-02-12T02:34:49;98267.91;;;-1.09;100.00
39243;BME280;29823;47.404;8.566;2023-02-12T02:37:26;98264.44;;;-1.20;100.00
39243;BME280;29823;47.404;8.566;2023-02-12T02:39:59;98270.16;;;-1.15;100.00
39243;BME280;29823;47.404;8.566;2023-02-12T02:42:32;98269.69;;;-1.20;100.00
39243;BME280;29823;47.404;8.566;2023-02-12T02:45:06;98270.50;;;-1.20;100.00
39243;BME280;29823;47.404;8.566;2023-02-12T02:47:40;98258.69;;;-1.25;100.00
39243;BME280;29823;47.404;8.566;2023-02-12T02:50:13;98254.63;;;-1.29;100.00
39243;BME280;29823;47.404;8.566;2023-02-12T02:52:47;98255.47;;;-1.29;100.00
39243;BME280;29823;47.404;8.566;2023-02-12T02:55:19;98258.44;;;-1.33;100.00
39243;BME280;29823;47.404;8.566;2023-02-12T02:57:50;98265.22;;;-1.31;100.00
39243;BME280;29823;47.404;8.566;2023-02-12T03:00:19;98265.97;;;-1.29;100.00
39243;BME280;29823;47.404;8.566;2023-02-12T03:02:52;98270.59;;;-1.32;100.00
39243;BME280;29823;47.404;8.566;2023-02-12T03:05:25;98275.00;;;-1.33;100.00
39243;BME280;29823;47.404;8.566;2023-02-12T03:07:58;98261.06;;;-1.33;100.00
39243;BME280;29823;47.404;8.566;2023-02-12T03:10:30;98256.38;;;-1.41;100.00
39243;BME280;29823;47.404;8.566;2023-02-12T03:13:03;98264.84;;;-1.37;100.00
39243;BME280;29823;47.404;8.566;2023-02-12T03:15:37;98257.34;;;-1.42;100.00
39243;BME280;29823;47.404;8.566;2023-02-12T03:18:10;98254.00;;;-1.44;100.00
39243;BME280;29823;47.404;8.566;2023-02-12T03:20:43;98251.63;;;-1.36;100.00
39243;BME280;29823;47.404;8.566;2023-02-12T03:23:19;98256.06;;;-1.36;100.00
39243;BME280;29823;47.404;8.566;2023-02-12T03:25:52;98257.72;;;-1.35;100.00
39243;BME280;29823;47.404;8.566;2023-02-12T03:28:26;98263.91;;;-1.36;100.00
39243;BME280;29823;47.404;8.566;2023-02-12T03:31:01;98264.38;;;-1.42;100.00
39243;BME280;29823;47.404;8.566;2023-02-12T03:33:36;98259.34;;;-1.45;100.00
39243;BME280;29823;47.404;8.566;2023-02-12T03:36:15;98261.72;;;-1.53;100.00
39243;BME280;29823;47.404;8.566;2023-02-12T03:38:48;98265.03;;;-1.62;100.00
39243;BME280;29823;47.404;8.566;2023-02-12T03:41:21;98255.50;;;-1.63;100.00
39243;BME280;29823;47.404;8.566;2023-02-12T03:43:53;98256.88;;;-1.70;100.00
39243;BME280;29823;47.404;8.566;2023-02-12T03:46:26;98257.94;;;-1.73;100.00
39243;BME280;29823;47.404;8.566;2023-02-12T03:49:02;98269.66;;;-1.66;100.00
39243;BME280;29823;47.404;8.566;2023-02-12T03:51:34;98255.00;;;-1.68;100.00
39243;BME280;29823;47.404;8.566;2023-02-12T03:54:03;98242.69;;;-1.68;100.00
39243;BME280;29823;47.404;8.566;2023-02-12T03:56:36;98258.06;;;-1.74;100.00
39243;BME280;29823;47.404;8.566;2023-02-12T03:59:06;98251.38;;;-1.78;100.00
39243;BME280;29823;47.404;8.566;2023-02-12T04:01:34;98257.44;;;-1.78;100.00
39243;BME280;29823;47.404;8.566;2023-02-12T04:04:06;98252.66;;;-1.84;100.00
39243;BME280;29823;47.404;8.566;2023-02-12T04:06:35;98269.22;;;-1.83;100.00
39243;BME280;29823;47.404;8.566;2023-02-12T04:09:06;98263.47;;;-1.88;100.00
39243;BME280;29823;47.404;8.566;2023-02-12T04:11:45;98260.16;;;-1.90;100.00
39243;BME280;29823;47.404;8.566;2023-02-12T04:14:23;98268.22;;;-1.93;100.00
39243;BME280;29823;47.404;8.566;2023-02-12T04:16:59;98263.63;;;-2.02;100.00
39243;BME280;29823;47.404;8.566;2023-02-12T04:19:43;98272.00;;;-1.97;100.00
39243;BME280;29823;47.404;8.566;2023-02-12T04:22:25;98275.25;;;-1.94;100.00
39243;BME280;29823;47.404;8.566;2023-02-12T04:25:02;98269.88;;;-1.92;100.00
39243;BME280;29823;47.404;8.566;2023-02-12T04:27:39;98277.75;;;-1.92;100.00
39243;BME280;29823;47.404;8.566;2023-02-12T04:30:15;98275.81;;;-2.01;100.00
39243;BME280;29823;47.404;8.566;2023-02-12T04:32:47;98286.59;;;-2.06;100.00
39243;BME280;29823;47.404;8.566;2023-02-12T04:35:22;98288.41;;;-2.06;100.00
39243;BME280;29823;47.404;8.566;2023-02-12T04:37:53;98279.94;;;-2.10;100.00
39243;BME280;29823;47.404;8.566;2023-02-12T04:40:24;98282.13;;;-2.04;100.00
39243;BME280;29823;47.404;8.566;2023-02-12T04:42:52;98274.97;;;-2.02;100.00
39243;BME280;29823;47.404;8.566;2023-02-12T04:45:23;98281.81;;;-1.88;100.00
39243;BME280;29823;47.404;8.566;2023-02-12T04:47:52;98287.53;;;-1.94;100.00
39243;BME280;29823;47.404;8.566;2023-02-12T04:50:22;98290.34;;;-1.97;100.00
39243;BME280;29823;47.404;8.566;2023-02-12T04:52:50;98277.94;;;-2.06;100.00
39243;BME280;29823;47.404;8.566;2023-02-12T04:55:18;98284.41;;;-1.99;100.00
39243;BME280;29823;47.404;8.566;2023-02-12T04:57:46;98290.78;;;-2.03;100.00
39243;BME280;29823;47.404;8.566;2023-02-12T05:00:15;98288.16;;;-2.03;100.00
39243;BME280;29823;47.404;8.566;2023-02-12T05:02:43;98285.56;;;-2.03;100.00
39243;BME280;29823;47.404;8.566;2023-02-12T05:05:11;98295.09;;;-2.02;100.00
39243;BME280;29823;47.404;8.566;2023-02-12T05:07:40;98274.53;;;-1.96;100.00
39243;BME280;29823;47.404;8.566;2023-02-12T05:10:09;98280.59;;;-1.95;100.00
39243;BME280;29823;47.404;8.566;2023-02-12T05:12:37;98276.19;;;-1.95;100.00
39243;BME280;29823;47.404;8.566;2023-02-12T05:15:05;98280.56;;;-1.83;100.00
39243;BME280;29823;47.404;8.566;2023-02-12T05:17:33;98269.00;;;-1.80;100.00
39243;BME280;29823;47.404;8.566;2023-02-12T05:20:01;98282.16;;;-1.69;100.00
39243;BME280;29823;47.404;8.566;2023-02-12T05:22:29;98292.41;;;-1.66;100.00
39243;BME280;29823;47.404;8.566;2023-02-12T05:24:58;98277.19;;;-1.61;100.00
39243;BME280;29823;47.404;8.566;2023-02-12T05:27:26;98274.56;;;-1.61;100.00
39243;BME280;29823;47.404;8.566;2023-02-12T05:29:54;98266.97;;;-1.53;100.00
39243;BME280;29823;47.404;8.566;2023-02-12T05:32:23;98282.31;;;-1.60;100.00
39243;BME280;29823;47.404;8.566;2023-02-12T05:34:51;98266.75;;;-1.74;100.00
39243;BME280;29823;47.404;8.566;2023-02-12T05:37:19;98275.22;;;-1.70;100.00
39243;BME280;29823;47.404;8.566;2023-02-12T05:39:47;98275.69;;;-1.76;100.00
39243;BME280;29823;47.404;8.566;2023-02-12T05:42:17;98262.41;;;-1.86;100.00
39243;BME280;29823;47.404;8.566;2023-02-12T05:44:45;98276.53;;;-1.76;100.00
39243;BME280;29823;47.404;8.566;2023-02-12T05:47:12;98281.31;;;-1.70;100.00
39243;BME280;29823;47.404;8.566;2023-02-12T05:49:40;98280.72;;;-1.73;100.00
39243;BME280;29823;47.404;8.566;2023-02-12T05:52:08;98272.81;;;-1.84;100.00
39243;BME280;29823;47.404;8.566;2023-02-12T05:54:36;98277.81;;;-1.81;100.00
39243;BME280;29823;47.404;8.566;2023-02-12T05:57:05;98286.16;;;-1.76;100.00
39243;BME280;29823;47.404;8.566;2023-02-12T05:59:35;98276.88;;;-1.80;100.00
39243;BME280;29823;47.404;8.566;2023-02-12T06:02:02;98269.72;;;-1.78;100.00
39243;BME280;29823;47.404;8.566;2023-02-12T06:04:30;98276.63;;;-1.77;100.00
39243;BME280;29823;47.404;8.566;2023-02-12T06:06:59;98271.34;;;-1.88;100.00
39243;BME280;29823;47.404;8.566;2023-02-12T06:09:27;98266.81;;;-1.86;100.00
39243;BME280;29823;47.404;8.566;2023-02-12T06:11:55;98270.88;;;-1.82;100.00
39243;BME280;29823;47.404;8.566;2023-02-12T06:14:23;98270.19;;;-1.84;100.00
39243;BME280;29823;47.404;8.566;2023-02-12T06:16:52;98267.22;;;-1.80;100.00
39243;BME280;29823;47.404;8.566;2023-02-12T06:19:20;98263.53;;;-1.77;100.00
39243;BME280;29823;47.404;8.566;2023-02-12T06:21:47;98275.00;;;-1.67;100.00
39243;BME280;29823;47.404;8.566;2023-02-12T06:24:16;98269.47;;;-1.52;100.00
39243;BME280;29823;47.404;8.566;2023-02-12T06:26:44;98263.16;;;-1.49;100.00
39243;BME280;29823;47.404;8.566;2023-02-12T06:29:12;98262.34;;;-1.50;100.00
39243;BME280;29823;47.404;8.566;2023-02-12T06:31:40;98276.53;;;-1.41;100.00
39243;BME280;29823;47.404;8.566;2023-02-12T06:34:11;98245.53;;;-1.47;100.00
39243;BME280;29823;47.404;8.566;2023-02-12T06:36:42;98270.44;;;-1.42;100.00
39243;BME280;29823;47.404;8.566;2023-02-12T06:39:12;98253.03;;;-1.43;100.00
39243;BME280;29823;47.404;8.566;2023-02-12T06:41:40;98256.97;;;-1.37;100.00
39243;BME280;29823;47.404;8.566;2023-02-12T06:44:10;98263.66;;;-1.33;100.00
39243;BME280;29823;47.404;8.566;2023-02-12T06:46:39;98262.84;;;-1.34;100.00
39243;BME280;29823;47.404;8.566;2023-02-12T06:49:10;98262.28;;;-1.26;100.00
39243;BME280;29823;47.404;8.566;2023-02-12T06:51:39;98260.59;;;-1.27;100.00
39243;BME280;29823;47.404;8.566;2023-02-12T06:54:14;98256.53;;;-1.31;100.00
39243;BME280;29823;47.404;8.566;2023-02-12T06:56:47;98276.38;;;-1.05;100.00
39243;BME280;29823;47.404;8.566;2023-02-12T06:59:15;98221.81;;;-1.35;100.00
39243;BME280;29823;47.404;8.566;2023-02-12T07:01:43;98272.34;;;-0.98;100.00
39243;BME280;29823;47.404;8.566;2023-02-12T07:04:13;98270.19;;;-1.04;100.00
39243;BME280;29823;47.404;8.566;2023-02-12T07:06:40;98264.22;;;-0.84;100.00
39243;BME280;29823;47.404;8.566;2023-02-12T07:09:08;98267.81;;;-0.74;100.00
39243;BME280;29823;47.404;8.566;2023-02-12T07:11:37;98274.03;;;-0.64;100.00
39243;BME280;29823;47.404;8.566;2023-02-12T07:14:05;98288.72;;;-0.40;100.00
39243;BME280;29823;47.404;8.566;2023-02-12T07:16:33;98261.13;;;-0.45;100.00
39243;BME280;29823;47.404;8.566;2023-02-12T07:19:01;98289.53;;;-0.28;100.00
39243;BME280;29823;47.404;8.566;2023-02-12T07:21:31;98288.78;;;-0.09;100.00
39243;BME280;29823;47.404;8.566;2023-02-12T07:23:59;98285.44;;;-0.11;100.00
39243;BME280;29823;47.404;8.566;2023-02-12T07:26:26;98293.66;;;0.07;100.00
39243;BME280;29823;47.404;8.566;2023-02-12T07:28:55;98289.34;;;0.48;100.00
39243;BME280;29823;47.404;8.566;2023-02-12T07:31:23;98279.16;;;0.75;100.00
39243;BME280;29823;47.404;8.566;2023-02-12T07:33:52;98282.31;;;0.69;100.00
39243;BME280;29823;47.404;8.566;2023-02-12T07:36:22;98284.59;;;0.83;100.00
39243;BME280;29823;47.404;8.566;2023-02-12T07:38:52;98274.63;;;0.46;100.00
39243;BME280;29823;47.404;8.566;2023-02-12T07:41:22;98275.22;;;0.49;100.00
39243;BME280;29823;47.404;8.566;2023-02-12T07:43:53;98280.22;;;0.52;100.00
39243;BME280;29823;47.404;8.566;2023-02-12T07:46:23;98283.91;;;0.81;100.00
39243;BME280;29823;47.404;8.566;2023-02-12T07:48:56;98283.31;;;0.98;100.00
39243;BME280;29823;47.404;8.566;2023-02-12T07:51:25;98289.59;;;1.07;100.00
39243;BME280;29823;47.404;8.566;2023-02-12T07:53:55;98287.34;;;1.23;100.00
39243;BME280;29823;47.404;8.566;2023-02-12T07:56:24;98281.75;;;1.37;100.00
39243;BME280;29823;47.404;8.566;2023-02-12T07:58:55;98282.59;;;1.77;100.00
39243;BME280;29823;47.404;8.566;2023-02-12T08:01:24;98281.53;;;1.89;100.00
39243;BME280;29823;47.404;8.566;2023-02-12T08:03:54;98278.84;;;2.47;100.00
39243;BME280;29823;47.404;8.566;2023-02-12T08:06:27;98280.53;;;2.77;100.00
39243;BME280;29823;47.404;8.566;2023-02-12T08:08:58;98273.28;;;2.88;100.00
39243;BME280;29823;47.404;8.566;2023-02-12T08:11:28;98272.19;;;2.72;100.00
39243;BME280;29823;47.404;8.566;2023-02-12T08:13:56;98279.41;;;2.79;100.00
39243;BME280;29823;47.404;8.566;2023-02-12T08:16:26;98285.97;;;4.04;100.00
39243;BME280;29823;47.404;8.566;2023-02-12T08:18:54;98272.31;;;3.45;100.00
39243;BME280;29823;47.404;8.566;2023-02-12T08:21:40;98276.41;;;3.20;100.00
39243;BME280;29823;47.404;8.566;2023-02-12T08:24:09;98281.47;;;2.85;100.00
39243;BME280;29823;47.404;8.566;2023-02-12T08:26:38;98279.28;;;2.81;100.00
39243;BME280;29823;47.404;8.566;2023-02-12T08:29:08;98286.63;;;3.52;100.00
39243;BME280;29823;47.404;8.566;2023-02-12T08:31:37;98283.69;;;3.55;100.00
39243;BME280;29823;47.404;8.566;2023-02-12T08:34:06;98287.41;;;3.98;100.00
39243;BME280;29823;47.404;8.566;2023-02-12T08:36:35;98281.16;;;3.63;100.00
39243;BME280;29823;47.404;8.566;2023-02-12T08:39:04;98277.59;;;4.08;100.00
39243;BME280;29823;47.404;8.566;2023-02-12T08:41:34;98278.00;;;4.48;100.00
39243;BME280;29823;47.404;8.566;2023-02-12T08:44:04;98259.03;;;4.35;100.00
39243;BME280;29823;47.404;8.566;2023-02-12T08:46:34;98280.81;;;4.64;100.00
39243;BME280;29823;47.404;8.566;2023-02-12T08:49:03;98273.16;;;4.96;100.00
39243;BME280;29823;47.404;8.566;2023-02-12T08:51:33;98278.03;;;5.26;100.00
39243;BME280;29823;47.404;8.566;2023-02-12T08:54:04;98275.06;;;5.29;100.00
39243;BME280;29823;47.404;8.566;2023-02-12T08:56:34;98267.28;;;5.61;100.00
39243;BME280;29823;47.404;8.566;2023-02-12T08:59:03;98260.66;;;6.40;100.00
39243;BME280;29823;47.404;8.566;2023-02-12T09:01:33;98266.28;;;6.29;94.84
39243;BME280;29823;47.404;8.566;2023-02-12T09:04:04;98253.41;;;7.30;81.31
39243;BME280;29823;47.404;8.566;2023-02-12T09:06:33;98259.06;;;7.19;81.33
39243;BME280;29823;47.404;8.566;2023-02-12T09:09:02;98252.41;;;7.31;88.37
39243;BME280;29823;47.404;8.566;2023-02-12T09:11:30;98246.31;;;7.69;79.42
39243;BME280;29823;47.404;8.566;2023-02-12T09:14:00;98247.59;;;8.28;77.29
39243;BME280;29823;47.404;8.566;2023-02-12T09:16:30;98252.59;;;7.76;80.37
39243;BME280;29823;47.404;8.566;2023-02-12T09:18:58;98241.63;;;8.26;76.96
39243;BME280;29823;47.404;8.566;2023-02-12T09:21:26;98242.94;;;8.52;74.77
39243;BME280;29823;47.404;8.566;2023-02-12T09:23:54;98241.50;;;8.11;75.22
39243;BME280;29823;47.404;8.566;2023-02-12T09:26:23;98239.50;;;8.05;77.32
39243;BME280;29823;47.404;8.566;2023-02-12T09:28:52;98243.63;;;8.16;80.51
39243;BME280;29823;47.404;8.566;2023-02-12T09:31:23;98227.25;;;7.96;79.55
39243;BME280;29823;47.404;8.566;2023-02-12T09:33:53;98241.63;;;8.18;80.77
39243;BME280;29823;47.404;8.566;2023-02-12T09:36:21;98235.56;;;8.62;79.83
39243;BME280;29823;47.404;8.566;2023-02-12T09:38:49;98223.22;;;8.61;78.20
39243;BME280;29823;47.404;8.566;2023-02-12T09:41:44;98231.41;;;8.82;78.88
39243;BME280;29823;47.404;8.566;2023-02-12T09:44:19;98232.81;;;8.48;80.14
39243;BME280;29823;47.404;8.566;2023-02-12T09:46:52;98229.13;;;8.18;84.56
39243;BME280;29823;47.404;8.566;2023-02-12T09:49:42;98233.19;;;8.06;90.87
39243;BME280;29823;47.404;8.566;2023-02-12T09:52:14;98235.09;;;7.90;90.86
39243;BME280;29823;47.404;8.566;2023-02-12T09:54:43;98235.41;;;7.40;96.91
39243;BME280;29823;47.404;8.566;2023-02-12T09:57:16;98223.63;;;7.35;97.86
39243;BME280;29823;47.404;8.566;2023-02-12T09:59:50;98226.03;;;7.68;93.69
39243;BME280;29823;47.404;8.566;2023-02-12T10:02:21;98233.31;;;7.74;95.49
39243;BME280;29823;47.404;8.566;2023-02-12T10:04:50;98226.44;;;7.88;93.27
39243;BME280;29823;47.404;8.566;2023-02-12T10:07:39;98233.25;;;7.44;95.28
39243;BME280;29823;47.404;8.566;2023-02-12T10:10:23;98236.34;;;7.63;95.95
39243;BME280;29823;47.404;8.566;2023-02-12T10:12:56;98228.81;;;6.96;100.00
39243;BME280;29823;47.404;8.566;2023-02-12T10:15:36;98234.63;;;6.76;100.00
39243;BME280;29823;47.404;8.566;2023-02-12T10:18:17;98228.31;;;6.69;100.00
39243;BME280;29823;47.404;8.566;2023-02-12T10:20:56;98218.84;;;6.66;100.00
39243;BME280;29823;47.404;8.566;2023-02-12T10:26:24;98231.28;;;7.06;100.00
39243;BME280;29823;47.404;8.566;2023-02-12T10:28:57;98218.84;;;6.50;100.00
39243;BME280;29823;47.404;8.566;2023-02-12T10:31:31;98221.69;;;6.97;100.00
39243;BME280;29823;47.404;8.566;2023-02-12T10:34:07;98221.97;;;7.34;100.00
39243;BME280;29823;47.404;8.566;2023-02-12T10:36:43;98224.38;;;7.59;95.21
39243;BME280;29823;47.404;8.566;2023-02-12T10:39:16;98228.31;;;7.79;91.68
39243;BME280;29823;47.404;8.566;2023-02-12T10:41:49;98219.50;;;7.79;92.16
39243;BME280;29823;47.404;8.566;2023-02-12T10:44:19;98203.59;;;8.01;91.91
39243;BME280;29823;47.404;8.566;2023-02-12T10:46:47;98221.56;;;7.99;90.73
39243;BME280;29823;47.404;8.566;2023-02-12T10:49:17;98218.16;;;8.13;85.86
39243;BME280;29823;47.404;8.566;2023-02-12T10:52:10;98199.94;;;8.55;84.50
39243;BME280;29823;47.404;8.566;2023-02-12T10:54:41;98208.94;;;8.99;81.48
39243;BME280;29823;47.404;8.566;2023-02-12T10:57:16;98207.75;;;9.16;80.47
39243;BME280;29823;47.404;8.566;2023-02-12T10:59:47;98206.78;;;8.58;80.24
39243;BME280;29823;47.404;8.566;2023-02-12T11:02:21;98200.84;;;8.70;78.66
39243;BME280;29823;47.404;8.566;2023-02-12T11:04:52;98186.19;;;9.40;76.00
39243;BME280;29823;47.404;8.566;2023-02-12T11:07:21;98184.03;;;9.94;70.99
39243;BME280;29823;47.404;8.566;2023-02-12T11:09:51;98179.84;;;11.25;67.03
39243;BME280;29823;47.404;8.566;2023-02-12T11:12:25;98170.97;;;10.97;66.17
39243;BME280;29823;47.404;8.566;2023-02-12T11:14:57;98165.63;;;10.76;64.34
39243;BME280;29823;47.404;8.566;2023-02-12T11:17:35;98166.88;;;10.80;64.89
39243;BME280;29823;47.404;8.566;2023-02-12T11:20:18;98157.75;;;11.78;60.89
39243;BME280;29823;47.404;8.566;2023-02-12T11:22:52;98162.31;;;12.44;59.53
39243;BME280;29823;47.404;8.566;2023-02-12T11:25:22;98160.16;;;11.12;62.29
39243;BME280;29823;47.404;8.566;2023-02-12T11:28:03;98165.22;;;9.87;66.30
39243;BME280;29823;47.404;8.566;2023-02-12T11:30:32;98155.59;;;9.43;68.88
39243;BME280;29823;47.404;8.566;2023-02-12T11:33:20;98149.53;;;9.63;69.15
39243;BME280;29823;47.404;8.566;2023-02-12T11:35:53;98158.16;;;9.07;72.66
39243;BME280;29823;47.404;8.566;2023-02-12T11:38:30;98155.53;;;9.36;73.65
39243;BME280;29823;47.404;8.566;2023-02-12T11:41:04;98145.53;;;9.01;74.06
39243;BME280;29823;47.404;8.566;2023-02-12T11:43:35;98149.84;;;9.02;74.38
39243;BME280;29823;47.404;8.566;2023-02-12T11:46:06;98154.69;;;9.36;74.51
39243;BME280;29823;47.404;8.566;2023-02-12T11:48:38;98138.50;;;9.23;74.76
39243;BME280;29823;47.404;8.566;2023-02-12T11:51:17;98125.19;;;9.73;73.46
39243;BME280;29823;47.404;8.566;2023-02-12T11:53:49;98133.72;;;9.97;72.28
39243;BME280;29823;47.404;8.566;2023-02-12T11:56:18;98129.06;;;10.41;68.68
39243;BME280;29823;47.404;8.566;2023-02-12T11:58:48;98126.13;;;10.01;71.33
39243;BME280;29823;47.404;8.566;2023-02-12T12:01:20;98125.75;;;10.18;69.58
39243;BME280;29823;47.404;8.566;2023-02-12T12:03:50;98124.84;;;9.97;70.48
39243;BME280;29823;47.404;8.566;2023-02-12T12:06:28;98114.94;;;10.47;70.83
39243;BME280;29823;47.404;8.566;2023-02-12T12:09:03;98106.81;;;10.34;70.57
39243;BME280;29823;47.404;8.566;2023-02-12T12:11:39;98104.25;;;10.26;75.75
39243;BME280;29823;47.404;8.566;2023-02-12T12:14:13;98100.22;;;9.80;78.19
39243;BME280;29823;47.404;8.566;2023-02-12T12:16:49;98105.09;;;11.30;73.21
39243;BME280;29823;47.404;8.566;2023-02-12T12:19:44;98108.50;;;10.63;77.84
39243;BME280;29823;47.404;8.566;2023-02-12T12:22:32;98108.63;;;10.76;77.48
39243;BME280;29823;47.404;8.566;2023-02-12T12:25:04;98103.47;;;10.53;77.09
39243;BME280;29823;47.404;8.566;2023-02-12T12:27:38;98103.03;;;10.50;78.80
39243;BME280;29823;47.404;8.566;2023-02-12T12:30:35;98111.56;;;11.08;76.47
39243;BME280;29823;47.404;8.566;2023-02-12T12:33:09;98105.41;;;10.87;73.66
39243;BME280;29823;47.404;8.566;2023-02-12T12:35:46;98106.25;;;11.55;71.86
39243;BME280;29823;47.404;8.566;2023-02-12T12:38:30;98094.16;;;12.19;68.05
39243;BME280;29823;47.404;8.566;2023-02-12T12:41:09;98086.38;;;12.63;67.20
39243;BME280;29823;47.404;8.566;2023-02-12T12:43:50;98083.31;;;14.19;61.88
39243;BME280;29823;47.404;8.566;2023-02-12T12:46:33;98083.88;;;14.65;59.87
39243;BME280;29823;47.404;8.566;2023-02-12T12:49:25;98072.28;;;13.39;60.30
39243;BME280;29823;47.404;8.566;2023-02-12T12:52:18;98075.44;;;14.55;58.57
39243;BME280;29823;47.404;8.566;2023-02-12T12:55:02;98066.56;;;13.10;61.13
39243;BME280;29823;47.404;8.566;2023-02-12T12:57:42;98075.13;;;13.57;60.83
39243;BME280;29823;47.404;8.566;2023-02-12T13:00:34;98072.41;;;14.45;59.48
39243;BME280;29823;47.404;8.566;2023-02-12T13:03:27;98070.25;;;12.63;61.20
39243;BME280;29823;47.404;8.566;2023-02-12T13:06:24;98062.44;;;12.36;62.92
39243;BME280;29823;47.404;8.566;2023-02-12T13:12:07;98072.41;;;10.31;74.78
39243;BME280;29823;47.404;8.566;2023-02-12T13:14:45;98078.50;;;10.19;75.94
39243;BME280;29823;47.404;8.566;2023-02-12T13:17:18;98069.13;;;10.29;75.57
39243;BME280;29823;47.404;8.566;2023-02-12T13:19:59;98073.78;;;9.85;79.46
39243;BME280;29823;47.404;8.566;2023-02-12T13:22:35;98061.22;;;9.65;82.94
39243;BME280;29823;47.404;8.566;2023-02-12T13:25:19;98069.84;;;9.17;89.48
39243;BME280;29823;47.404;8.566;2023-02-12T13:27:50;98075.63;;;9.20;90.96
39243;BME280;29823;47.404;8.566;2023-02-12T13:30:22;98071.31;;;9.19;91.72
39243;BME280;29823;47.404;8.566;2023-02-12T13:33:00;98062.91;;;9.22;90.83